createdAt,value
2018-12-24T00:00:11.818Z,2.30
2018-12-24T00:01:11.819Z,2.40
2018-12-24T00:02:11.794Z,2.40
2018-12-24T00:03:11.795Z,2.20
2018-12-24T00:04:11.790Z,2.10
2018-12-24T00:05:11.766Z,1.90
2018-12-24T00:06:11.755Z,2.10
2018-12-24T00:07:11.742Z,3.10
2018-12-24T00:08:11.741Z,2.00
2018-12-24T00:09:11.872Z,2.30
2018-12-24T00:10:11.712Z,2.10
2018-12-24T00:11:11.696Z,2.20
2018-12-24T00:12:11.688Z,2.10
2018-12-24T00:13:11.676Z,2.50
2018-12-24T00:14:11.681Z,2.20
2018-12-24T00:15:11.665Z,2.70
2018-12-24T00:16:11.650Z,2.10
2018-12-24T00:17:11.657Z,1.70
2018-12-24T00:18:11.623Z,2.00
2018-12-24T00:19:11.645Z,2.10
2018-12-24T00:20:11.604Z,2.50
2018-12-24T00:21:11.595Z,2.00
2018-12-24T00:22:11.584Z,2.00
2018-12-24T00:23:11.598Z,1.80
2018-12-24T00:24:11.568Z,2.00
2018-12-24T00:25:11.668Z,1.90
2018-12-24T00:26:11.554Z,2.10
2018-12-24T00:27:11.535Z,1.90
2018-12-24T00:28:11.534Z,2.10
2018-12-24T00:29:11.511Z,2.20
2018-12-24T00:30:11.513Z,2.00
2018-12-24T00:31:11.486Z,2.40
2018-12-24T00:32:11.478Z,1.70
2018-12-24T00:33:11.465Z,1.70
2018-12-24T00:34:11.453Z,2.30
2018-12-24T00:35:11.460Z,1.90
2018-12-24T00:36:11.431Z,1.90
2018-12-24T00:37:11.420Z,1.80
2018-12-24T00:38:11.410Z,2.80
2018-12-24T00:39:11.398Z,2.10
2018-12-24T00:40:11.406Z,1.90
2018-12-24T00:41:11.389Z,1.90
2018-12-24T00:42:15.857Z,2.90
2018-12-24T00:43:11.390Z,1.90
2018-12-24T00:44:11.357Z,2.00
2018-12-24T00:45:11.392Z,2.10
2018-12-24T00:46:11.325Z,1.90
2018-12-24T00:47:11.316Z,2.20
2018-12-24T00:48:11.306Z,2.10
2018-12-24T00:49:11.292Z,2.00
2018-12-24T00:50:11.289Z,1.60
2018-12-24T00:51:11.291Z,2.90
2018-12-24T00:52:11.262Z,2.00
2018-12-24T00:53:11.252Z,1.80
2018-12-24T00:54:11.247Z,1.90
2018-12-24T00:55:11.229Z,2.00
2018-12-24T00:56:11.257Z,2.60
2018-12-24T00:57:11.208Z,2.00
2018-12-24T00:58:11.199Z,1.80
2018-12-24T00:59:11.188Z,2.40
2018-12-24T01:00:11.182Z,1.80
2018-12-24T01:01:11.192Z,1.80
2018-12-24T01:02:11.152Z,2.30
2018-12-24T01:03:11.144Z,1.90
2018-12-24T01:04:11.140Z,1.80
2018-12-24T01:05:11.122Z,1.90
2018-12-24T01:06:11.125Z,2.50
2018-12-24T01:07:11.110Z,1.70
2018-12-24T01:08:11.102Z,2.00
2018-12-24T01:09:11.079Z,2.00
2018-12-24T01:10:11.068Z,1.90
2018-12-24T01:11:11.081Z,1.70
2018-12-24T01:12:11.058Z,1.90
2018-12-24T01:13:11.041Z,1.80
2018-12-24T01:14:11.033Z,1.90
2018-12-24T01:15:11.022Z,2.30
2018-12-24T01:16:11.029Z,1.70
2018-12-24T01:17:10.999Z,2.10
2018-12-24T01:18:10.984Z,1.80
2018-12-24T01:19:10.977Z,1.80
2018-12-24T01:20:10.971Z,1.80
2018-12-24T01:21:10.974Z,2.10
2018-12-24T01:22:10.943Z,1.80
2018-12-24T01:23:10.931Z,2.00
2018-12-24T01:24:10.922Z,2.20
2018-12-24T01:25:10.911Z,1.80
2018-12-24T01:26:10.924Z,1.80
2018-12-24T01:27:10.889Z,2.10
2018-12-24T01:28:10.885Z,1.70
2018-12-24T01:29:10.872Z,1.70
2018-12-24T01:30:10.856Z,1.70
2018-12-24T01:31:10.860Z,1.60
2018-12-24T01:32:10.835Z,2.10
2018-12-24T01:33:10.834Z,1.90
2018-12-24T01:34:10.824Z,1.80
2018-12-24T01:35:10.802Z,1.70
2018-12-24T01:36:10.823Z,2.20
2018-12-24T01:37:10.785Z,1.70
2018-12-24T01:38:10.795Z,1.90
2018-12-24T01:39:10.760Z,1.80
2018-12-24T01:40:10.756Z,2.50
2018-12-24T01:41:10.784Z,2.40
2018-12-24T01:42:10.733Z,1.90
2018-12-24T01:43:10.725Z,1.80
2018-12-24T01:44:10.717Z,2.30
2018-12-24T01:45:10.697Z,1.80
2018-12-24T01:46:10.693Z,1.70
2018-12-24T01:47:10.689Z,1.90
2018-12-24T01:48:10.668Z,1.80
2018-12-24T01:49:10.654Z,2.00
2018-12-24T01:50:10.643Z,1.90
2018-12-24T01:51:10.673Z,1.90
2018-12-24T01:52:10.638Z,2.30
2018-12-24T01:53:10.613Z,1.90
2018-12-24T01:54:10.599Z,2.10
2018-12-24T01:55:10.588Z,2.20
2018-12-24T01:56:10.588Z,1.90
2018-12-24T01:57:10.581Z,1.90
2018-12-24T01:58:10.559Z,1.80
2018-12-24T01:59:10.543Z,1.80
2018-12-24T02:00:10.535Z,2.10
2018-12-24T02:01:10.527Z,1.90
2018-12-24T02:02:10.537Z,2.10
2018-12-24T02:03:10.500Z,1.80
2018-12-24T02:04:10.492Z,2.10
2018-12-24T02:05:10.480Z,1.90
2018-12-24T02:06:10.471Z,2.10
2018-12-24T02:07:10.476Z,1.90
2018-12-24T02:08:10.447Z,1.90
2018-12-24T02:09:10.431Z,2.10
2018-12-24T02:10:10.424Z,1.70
2018-12-24T02:11:10.415Z,2.40
2018-12-24T02:12:10.418Z,1.90
2018-12-24T02:13:10.396Z,1.80
2018-12-24T02:14:10.382Z,2.10
2018-12-24T02:15:10.389Z,1.60
2018-12-24T02:16:10.361Z,2.20
2018-12-24T02:17:10.374Z,1.90
2018-12-24T02:18:10.338Z,2.10
2018-12-24T02:19:10.330Z,2.30
2018-12-24T02:20:10.324Z,2.10
2018-12-24T02:21:10.334Z,2.20
2018-12-24T02:22:12.935Z,1.70
2018-12-24T02:23:10.295Z,2.00
2018-12-24T02:24:10.275Z,2.20
2018-12-24T02:25:10.266Z,1.80
2018-12-24T02:26:10.265Z,1.70
2018-12-24T02:27:10.276Z,2.00
2018-12-24T02:28:10.232Z,2.00
2018-12-24T02:29:10.221Z,2.00
2018-12-24T02:30:10.208Z,1.80
2018-12-24T02:31:10.208Z,1.80
2018-12-24T02:32:10.189Z,2.10
2018-12-24T02:33:10.191Z,1.70
2018-12-24T02:34:10.166Z,1.70
2018-12-24T02:35:10.160Z,1.70
2018-12-24T02:36:10.153Z,2.00
2018-12-24T02:37:10.140Z,1.70
2018-12-24T02:38:10.139Z,1.70
2018-12-24T02:39:10.115Z,1.70
2018-12-24T02:40:10.108Z,1.80
2018-12-24T02:41:10.094Z,2.00
2018-12-24T02:42:10.082Z,1.90
2018-12-24T02:43:10.084Z,2.00
2018-12-24T02:44:10.063Z,2.30
2018-12-24T02:45:10.051Z,2.00
2018-12-24T02:46:10.053Z,2.00
2018-12-24T02:47:10.053Z,2.10
2018-12-24T02:48:10.035Z,1.70
2018-12-24T02:49:10.008Z,2.00
2018-12-24T02:50:10.005Z,2.00
2018-12-24T02:51:09.992Z,1.80
2018-12-24T02:52:09.979Z,2.10
2018-12-24T02:53:09.989Z,1.90
2018-12-24T02:54:09.951Z,1.90
2018-12-24T02:55:09.943Z,2.10
2018-12-24T02:56:09.934Z,1.70
2018-12-24T02:57:09.918Z,2.10
2018-12-24T02:58:09.925Z,1.70
2018-12-24T02:59:09.897Z,1.70
2018-12-24T03:00:09.882Z,1.70
2018-12-24T03:01:09.879Z,2.10
2018-12-24T03:02:09.869Z,2.20
2018-12-24T03:03:09.878Z,2.10
2018-12-24T03:04:09.846Z,1.70
2018-12-24T03:05:09.834Z,1.90
2018-12-24T03:06:09.825Z,2.30
2018-12-24T03:07:09.812Z,1.80
2018-12-24T03:08:09.820Z,1.70
2018-12-24T03:09:09.789Z,2.20
2018-12-24T03:10:09.776Z,1.80
2018-12-24T03:11:09.777Z,1.90
2018-12-24T03:12:09.760Z,1.90
2018-12-24T03:13:09.760Z,2.10
2018-12-24T03:14:09.745Z,2.10
2018-12-24T03:15:09.723Z,2.10
2018-12-24T03:16:09.715Z,1.80
2018-12-24T03:17:09.699Z,1.90
2018-12-24T03:18:09.716Z,1.90
2018-12-24T03:19:09.679Z,1.90
2018-12-24T03:20:09.674Z,2.00
2018-12-24T03:21:09.659Z,1.70
2018-12-24T03:22:09.648Z,1.80
2018-12-24T03:23:09.669Z,1.70
2018-12-24T03:24:09.631Z,2.10
2018-12-24T03:25:09.612Z,1.70
2018-12-24T03:26:09.605Z,1.90
2018-12-24T03:27:09.595Z,1.70
2018-12-24T03:28:09.578Z,2.20
2018-12-24T03:29:09.592Z,1.90
2018-12-24T03:30:09.568Z,1.90
2018-12-24T03:31:09.552Z,2.00
2018-12-24T03:32:09.541Z,1.90
2018-12-24T03:33:09.577Z,1.90
2018-12-24T03:34:09.531Z,2.60
2018-12-24T03:35:09.507Z,1.90
2018-12-24T03:36:09.574Z,1.60
2018-12-24T03:37:09.492Z,1.70
2018-12-24T03:38:09.474Z,1.90
2018-12-24T03:39:09.482Z,1.60
2018-12-24T03:40:09.462Z,1.80
2018-12-24T03:41:09.441Z,1.70
2018-12-24T03:42:09.437Z,1.70
2018-12-24T03:43:12.946Z,1.70
2018-12-24T03:44:09.421Z,1.90
2018-12-24T03:45:09.401Z,1.70
2018-12-24T03:46:09.386Z,1.90
2018-12-24T03:47:09.384Z,1.60
2018-12-24T03:48:09.374Z,1.80
2018-12-24T03:49:09.373Z,1.70
2018-12-24T03:50:09.345Z,1.70
2018-12-24T03:51:09.335Z,1.80
2018-12-24T03:52:09.327Z,1.40
2018-12-24T03:53:09.320Z,1.70
2018-12-24T03:54:09.318Z,1.80
2018-12-24T03:55:09.296Z,1.60
2018-12-24T03:56:09.281Z,1.70
2018-12-24T03:57:09.276Z,1.80
2018-12-24T03:58:09.261Z,1.70
2018-12-24T03:59:09.268Z,1.60
2018-12-24T04:00:09.234Z,2.00
2018-12-24T04:01:09.230Z,1.70
2018-12-24T04:02:09.216Z,1.60
2018-12-24T04:03:09.203Z,1.90
2018-12-24T04:04:09.204Z,1.70
2018-12-24T04:05:09.190Z,1.80
2018-12-24T04:06:09.182Z,2.20
2018-12-24T04:07:09.165Z,1.50
2018-12-24T04:08:09.151Z,1.70
2018-12-24T04:09:09.155Z,2.10
2018-12-24T04:10:09.135Z,1.70
2018-12-24T04:11:09.125Z,1.70
2018-12-24T04:12:09.110Z,1.70
2018-12-24T04:13:09.100Z,1.60
2018-12-24T04:14:09.103Z,1.60
2018-12-24T04:15:09.081Z,1.40
2018-12-24T04:16:09.071Z,1.60
2018-12-24T04:17:09.059Z,1.60
2018-12-24T04:18:09.045Z,1.50
2018-12-24T04:19:09.049Z,1.70
2018-12-24T04:20:09.022Z,1.60
2018-12-24T04:21:09.010Z,1.60
2018-12-24T04:22:09.006Z,1.80
2018-12-24T04:23:08.993Z,1.80
2018-12-24T04:24:08.999Z,1.80
2018-12-24T04:25:08.974Z,1.50
2018-12-24T04:26:08.965Z,1.80
2018-12-24T04:27:08.956Z,1.50
2018-12-24T04:28:08.941Z,1.60
2018-12-24T04:29:08.946Z,1.40
2018-12-24T04:30:08.930Z,1.50
2018-12-24T04:31:08.912Z,1.50
2018-12-24T04:32:08.895Z,1.40
2018-12-24T04:33:08.890Z,1.80
2018-12-24T04:34:08.897Z,1.60
2018-12-24T04:35:08.954Z,1.70
2018-12-24T04:36:08.853Z,1.90
2018-12-24T04:37:08.843Z,1.60
2018-12-24T04:38:08.833Z,1.40
2018-12-24T04:39:08.836Z,1.60
2018-12-24T04:40:08.948Z,1.50
2018-12-24T04:41:08.818Z,1.80
2018-12-24T04:42:08.874Z,1.50
2018-12-24T04:43:08.797Z,1.60
2018-12-24T04:44:08.806Z,1.60
2018-12-24T04:45:08.874Z,1.50
2018-12-24T04:46:08.748Z,1.70
2018-12-24T04:47:08.739Z,1.90
2018-12-24T04:48:08.730Z,1.50
2018-12-24T04:49:08.742Z,1.50
2018-12-24T04:50:08.699Z,1.60
2018-12-24T04:51:08.697Z,1.50
2018-12-24T04:52:08.709Z,1.40
2018-12-24T04:53:08.670Z,1.50
2018-12-24T04:54:08.659Z,1.70
2018-12-24T04:55:08.665Z,1.40
2018-12-24T04:56:08.634Z,1.40
2018-12-24T04:57:08.624Z,1.50
2018-12-24T04:58:08.610Z,1.60
2018-12-24T04:59:08.605Z,1.50
2018-12-24T05:00:08.603Z,1.40
2018-12-24T05:01:08.579Z,1.50
2018-12-24T05:02:08.574Z,1.60
2018-12-24T05:03:08.566Z,1.40
2018-12-24T05:04:08.550Z,1.50
2018-12-24T05:05:08.568Z,1.70
2018-12-24T05:06:08.529Z,1.70
2018-12-24T05:07:08.512Z,1.80
2018-12-24T05:08:08.504Z,1.40
2018-12-24T05:09:08.498Z,1.60
2018-12-24T05:10:08.493Z,1.50
2018-12-24T05:11:08.477Z,1.40
2018-12-24T05:12:08.454Z,1.40
2018-12-24T05:13:08.451Z,1.80
2018-12-24T05:14:08.437Z,1.80
2018-12-24T05:15:08.444Z,1.50
2018-12-24T05:16:08.424Z,2.80
2018-12-24T05:17:08.408Z,1.90
2018-12-24T05:18:08.394Z,1.80
2018-12-24T05:19:08.380Z,1.60
2018-12-24T05:20:08.383Z,1.50
2018-12-24T05:21:08.365Z,1.60
2018-12-24T05:22:08.346Z,1.60
2018-12-24T05:23:08.340Z,1.50
2018-12-24T05:24:08.326Z,1.60
2018-12-24T05:25:08.348Z,1.60
2018-12-24T05:26:08.307Z,1.50
2018-12-24T05:27:08.295Z,1.50
2018-12-24T05:28:08.292Z,1.50
2018-12-24T05:29:08.269Z,1.50
2018-12-24T05:30:08.276Z,1.50
2018-12-24T05:31:08.248Z,1.40
2018-12-24T05:32:08.243Z,1.40
2018-12-24T05:33:08.232Z,1.90
2018-12-24T05:34:08.223Z,1.40
2018-12-24T05:35:08.221Z,1.50
2018-12-24T05:36:08.198Z,1.50
2018-12-24T05:37:08.182Z,1.50
2018-12-24T05:38:08.181Z,1.60
2018-12-24T05:39:08.171Z,1.60
2018-12-24T05:40:08.180Z,1.50
2018-12-24T05:41:08.146Z,1.40
2018-12-24T05:42:08.135Z,1.50
2018-12-24T05:43:08.123Z,1.40
2018-12-24T05:44:08.111Z,1.60
2018-12-24T05:45:08.097Z,1.40
2018-12-24T05:46:08.113Z,1.30
2018-12-24T05:47:08.078Z,1.50
2018-12-24T05:48:08.062Z,1.00
2018-12-24T05:49:08.053Z,1.40
2018-12-24T05:50:08.047Z,1.60
2018-12-24T05:51:08.045Z,1.60
2018-12-24T05:52:08.027Z,1.60
2018-12-24T05:53:08.015Z,1.30
2018-12-24T05:54:08.040Z,1.40
2018-12-24T05:55:07.993Z,1.40
2018-12-24T05:56:09.501Z,1.70
2018-12-24T05:57:08.035Z,1.40
2018-12-24T05:58:07.966Z,1.70
2018-12-24T05:59:07.949Z,1.20
2018-12-24T06:00:07.942Z,1.40
2018-12-24T06:01:07.948Z,1.30
2018-12-24T06:02:07.913Z,1.50
2018-12-24T06:03:07.915Z,1.40
2018-12-24T06:04:07.887Z,1.40
2018-12-24T06:05:07.887Z,1.60
2018-12-24T06:06:07.881Z,1.50
2018-12-24T06:07:07.871Z,1.30
2018-12-24T06:08:07.848Z,1.50
2018-12-24T06:09:07.838Z,1.60
2018-12-24T06:10:07.834Z,1.30
2018-12-24T06:11:07.832Z,1.30
2018-12-24T06:12:07.807Z,1.40
2018-12-24T06:13:07.795Z,1.80
2018-12-24T06:14:07.794Z,1.40
2018-12-24T06:15:07.774Z,1.20
2018-12-24T06:16:07.794Z,1.30
2018-12-24T06:17:07.748Z,1.60
2018-12-24T06:18:07.739Z,1.20
2018-12-24T06:19:07.737Z,1.20
2018-12-24T06:20:07.717Z,1.20
2018-12-24T06:21:07.732Z,1.40
2018-12-24T06:22:07.694Z,1.30
2018-12-24T06:23:07.687Z,1.60
2018-12-24T06:24:07.673Z,1.40
2018-12-24T06:25:07.660Z,1.30
2018-12-24T06:26:07.651Z,1.30
2018-12-24T06:27:07.654Z,1.80
2018-12-24T06:28:07.632Z,1.30
2018-12-24T06:29:07.615Z,1.30
2018-12-24T06:30:07.610Z,1.50
2018-12-24T06:31:07.603Z,1.30
2018-12-24T06:32:07.601Z,1.30
2018-12-24T06:33:07.580Z,1.30
2018-12-24T06:34:07.566Z,1.70
2018-12-24T06:35:07.617Z,1.50
2018-12-24T06:36:07.543Z,1.50
2018-12-24T06:37:07.561Z,1.30
2018-12-24T06:38:07.525Z,1.30
2018-12-24T06:39:07.509Z,1.40
2018-12-24T06:40:07.500Z,1.30
2018-12-24T06:41:07.486Z,1.40
2018-12-24T06:42:07.488Z,1.00
2018-12-24T06:43:07.463Z,1.30
2018-12-24T06:44:07.456Z,1.30
2018-12-24T06:45:07.447Z,1.20
2018-12-24T06:46:07.431Z,1.20
2018-12-24T06:47:07.433Z,1.30
2018-12-24T06:48:07.412Z,1.30
2018-12-24T06:49:07.398Z,1.50
2018-12-24T06:50:07.389Z,1.10
2018-12-24T06:51:07.380Z,1.40
2018-12-24T06:52:07.377Z,1.60
2018-12-24T06:53:07.357Z,1.20
2018-12-24T06:54:07.342Z,1.50
2018-12-24T06:55:07.335Z,1.20
2018-12-24T06:56:07.320Z,1.10
2018-12-24T06:57:07.331Z,1.20
2018-12-24T06:58:07.303Z,1.20
2018-12-24T06:59:07.294Z,1.20
2018-12-24T07:00:07.276Z,1.20
2018-12-24T07:01:07.267Z,1.30
2018-12-24T07:02:07.274Z,1.10
2018-12-24T07:03:07.241Z,1.20
2018-12-24T07:04:07.232Z,1.20
2018-12-24T07:05:07.222Z,1.30
2018-12-24T07:06:07.211Z,1.10
2018-12-24T07:07:07.224Z,1.40
2018-12-24T07:08:07.187Z,1.20
2018-12-24T07:09:07.178Z,1.20
2018-12-24T07:10:07.171Z,1.20
2018-12-24T07:11:07.159Z,1.20
2018-12-24T07:12:07.146Z,1.10
2018-12-24T07:13:07.148Z,1.20
2018-12-24T07:14:15.226Z,1.20
2018-12-24T07:15:08.110Z,1.20
2018-12-24T07:16:07.100Z,1.20
2018-12-24T07:17:07.091Z,1.20
2018-12-24T07:18:07.100Z,1.30
2018-12-24T07:19:07.074Z,1.10
2018-12-24T07:20:07.059Z,0.90
2018-12-24T07:21:07.057Z,1.10
2018-12-24T07:22:07.038Z,1.00
2018-12-24T07:23:07.047Z,1.30
2018-12-24T07:24:07.019Z,1.40
2018-12-24T07:25:07.013Z,1.10
2018-12-24T07:26:09.023Z,1.10
2018-12-24T07:27:06.980Z,1.30
2018-12-24T07:28:06.986Z,0.90
2018-12-24T07:29:06.966Z,1.20
2018-12-24T07:30:06.955Z,1.20
2018-12-24T07:31:06.938Z,1.20
2018-12-24T07:32:06.927Z,1.40
2018-12-24T07:33:06.934Z,1.20
2018-12-24T07:34:06.911Z,1.10
2018-12-24T07:35:06.901Z,1.10
2018-12-24T07:36:06.888Z,1.20
2018-12-24T07:37:06.875Z,1.20
2018-12-24T07:38:06.885Z,1.30
2018-12-24T07:39:06.865Z,1.20
2018-12-24T07:40:06.851Z,1.20
2018-12-24T07:41:06.851Z,2.10
2018-12-24T07:42:06.823Z,1.20
2018-12-24T07:43:06.827Z,1.40
2018-12-24T07:44:06.797Z,1.30
2018-12-24T07:45:06.785Z,1.10
2018-12-24T07:46:06.776Z,1.10
2018-12-24T07:47:06.768Z,1.30
2018-12-24T07:48:06.764Z,1.20
2018-12-24T07:49:06.749Z,1.10
2018-12-24T07:50:06.735Z,1.30
2018-12-24T07:51:06.718Z,1.10
2018-12-24T07:52:06.713Z,1.40
2018-12-24T07:53:06.731Z,1.10
2018-12-24T07:54:06.691Z,1.10
2018-12-24T07:55:06.679Z,1.50
2018-12-24T07:56:06.667Z,1.10
2018-12-24T07:57:06.656Z,1.20
2018-12-24T07:58:06.647Z,1.20
2018-12-24T07:59:06.648Z,1.10
2018-12-24T08:00:06.631Z,1.00
2018-12-24T08:01:06.613Z,1.10
2018-12-24T08:02:06.611Z,1.10
2018-12-24T08:03:06.602Z,0.90
2018-12-24T08:04:06.593Z,1.20
2018-12-24T08:05:06.573Z,1.10
2018-12-24T08:06:06.557Z,1.10
2018-12-24T08:07:06.544Z,1.20
2018-12-24T08:08:06.543Z,1.10
2018-12-24T08:09:06.538Z,1.10
2018-12-24T08:10:06.509Z,1.20
2018-12-24T08:11:06.512Z,0.90
2018-12-24T08:12:06.489Z,1.00
2018-12-24T08:13:06.481Z,1.10
2018-12-24T08:14:06.500Z,1.10
2018-12-24T08:15:06.465Z,1.10
2018-12-24T08:16:06.451Z,1.10
2018-12-24T08:17:06.438Z,1.10
2018-12-24T08:18:06.425Z,0.90
2018-12-24T08:19:06.414Z,1.00
2018-12-24T08:20:06.430Z,1.10
2018-12-24T08:21:06.394Z,1.30
2018-12-24T08:22:06.384Z,1.10
2018-12-24T08:23:06.381Z,1.30
2018-12-24T08:24:06.354Z,1.70
2018-12-24T08:25:06.373Z,1.10
2018-12-24T08:26:06.334Z,1.10
2018-12-24T08:27:06.326Z,1.00
2018-12-24T08:28:06.314Z,1.00
2018-12-24T08:29:06.304Z,1.40
2018-12-24T08:30:06.331Z,0.90
2018-12-24T08:31:06.287Z,0.90
2018-12-24T08:32:06.269Z,1.20
2018-12-24T08:33:06.275Z,1.00
2018-12-24T08:34:06.251Z,1.10
2018-12-24T08:35:06.262Z,0.90
2018-12-24T08:36:06.224Z,1.00
2018-12-24T08:37:06.233Z,1.20
2018-12-24T08:38:06.207Z,1.20
2018-12-24T08:39:06.195Z,1.00
2018-12-24T08:40:06.225Z,1.10
2018-12-24T08:41:06.173Z,1.00
2018-12-24T08:42:06.170Z,0.90
2018-12-24T08:43:06.164Z,0.90
2018-12-24T08:44:06.139Z,1.20
2018-12-24T08:45:06.150Z,1.20
2018-12-24T08:46:06.120Z,1.10
2018-12-24T08:47:06.112Z,1.00
2018-12-24T08:48:06.101Z,0.80
2018-12-24T08:49:06.089Z,1.20
2018-12-24T08:50:06.091Z,1.10
2018-12-24T08:51:06.068Z,1.00
2018-12-24T08:52:06.051Z,1.10
2018-12-24T08:53:06.054Z,0.90
2018-12-24T08:54:06.098Z,0.80
2018-12-24T08:55:06.051Z,0.80
2018-12-24T08:56:06.010Z,1.00
2018-12-24T08:57:06.002Z,1.10
2018-12-24T08:58:06.045Z,0.90
2018-12-24T08:59:06.031Z,1.00
2018-12-24T09:00:05.997Z,1.10
2018-12-24T09:01:05.954Z,1.00
2018-12-24T09:02:05.946Z,0.90
2018-12-24T09:03:05.943Z,1.00
2018-12-24T09:04:05.926Z,1.10
2018-12-24T09:05:05.928Z,1.00
2018-12-24T09:06:05.903Z,1.10
2018-12-24T09:07:05.891Z,0.90
2018-12-24T09:08:05.880Z,0.90
2018-12-24T09:09:05.867Z,1.20
2018-12-24T09:10:05.883Z,0.90
2018-12-24T09:11:05.924Z,0.80
2018-12-24T09:12:05.867Z,1.30
2018-12-24T09:13:05.861Z,1.30
2018-12-24T09:14:05.814Z,0.90
2018-12-24T09:15:05.903Z,1.10
2018-12-24T09:16:05.805Z,1.00
2018-12-24T09:17:05.786Z,0.80
2018-12-24T09:18:05.779Z,0.80
2018-12-24T09:19:05.768Z,1.20
2018-12-24T09:20:05.790Z,1.10
2018-12-24T09:21:05.788Z,1.30
2018-12-24T09:22:05.730Z,1.00
2018-12-24T09:23:05.806Z,0.90
2018-12-24T09:24:05.710Z,0.80
2018-12-24T09:25:05.699Z,1.50
2018-12-24T09:26:05.705Z,0.90
2018-12-24T09:27:05.698Z,1.10
2018-12-24T09:28:05.659Z,1.00
2018-12-24T09:29:05.650Z,0.90
2018-12-24T09:30:05.643Z,1.10
2018-12-24T09:31:05.731Z,0.90
2018-12-24T09:32:05.634Z,1.10
2018-12-24T09:33:05.618Z,1.00
2018-12-24T09:34:05.593Z,1.50
2018-12-24T09:35:05.591Z,1.00
2018-12-24T09:36:05.598Z,1.20
2018-12-24T09:37:05.576Z,1.00
2018-12-24T09:38:05.560Z,0.90
2018-12-24T09:39:05.547Z,1.00
2018-12-24T09:40:05.546Z,0.90
2018-12-24T09:41:05.537Z,1.20
2018-12-24T09:42:05.521Z,1.00
2018-12-24T09:43:05.508Z,1.00
2018-12-24T09:44:05.506Z,1.10
2018-12-24T09:45:05.498Z,1.10
2018-12-24T09:46:05.502Z,1.00
2018-12-24T09:47:05.465Z,1.10
2018-12-24T09:48:05.457Z,1.10
2018-12-24T09:49:05.453Z,1.00
2018-12-24T09:50:05.444Z,1.10
2018-12-24T09:51:05.444Z,1.40
2018-12-24T09:52:05.412Z,1.00
2018-12-24T09:53:05.401Z,1.10
2018-12-24T09:54:05.412Z,1.10
2018-12-24T09:55:05.388Z,1.10
2018-12-24T09:56:05.391Z,0.90
2018-12-24T09:57:05.354Z,0.80
2018-12-24T09:58:05.342Z,0.90
2018-12-24T09:59:05.341Z,1.00
2018-12-24T10:00:05.317Z,1.10
2018-12-24T10:01:05.379Z,1.10
2018-12-24T10:02:05.322Z,1.00
2018-12-24T10:03:05.298Z,0.90
2018-12-24T10:04:05.281Z,0.90
2018-12-24T10:05:05.268Z,1.90
2018-12-24T10:06:05.295Z,0.90
2018-12-24T10:07:05.249Z,0.90
2018-12-24T10:08:05.316Z,1.10
2018-12-24T10:09:05.221Z,1.10
2018-12-24T10:10:05.221Z,0.80
2018-12-24T10:11:05.212Z,0.80
2018-12-24T10:12:05.224Z,1.20
2018-12-24T10:13:05.219Z,1.00
2018-12-24T10:14:05.183Z,0.80
2018-12-24T10:15:08.242Z,1.10
2018-12-24T10:16:05.167Z,1.10
2018-12-24T10:17:05.246Z,0.90
2018-12-24T10:18:05.181Z,0.90
2018-12-24T10:19:05.187Z,0.80
2018-12-24T10:20:05.107Z,1.10
2018-12-24T10:21:05.102Z,0.80
2018-12-24T10:22:05.110Z,1.30
2018-12-24T10:23:05.077Z,1.10
2018-12-24T10:24:05.113Z,1.20
2018-12-24T10:25:05.066Z,0.90
2018-12-24T10:26:05.098Z,0.90
2018-12-24T10:27:05.045Z,1.00
2018-12-24T10:28:05.036Z,0.80
2018-12-24T10:29:05.014Z,1.40
2018-12-24T10:30:05.002Z,1.40
2018-12-24T10:31:04.991Z,0.80
2018-12-24T10:32:04.991Z,1.10
2018-12-24T10:33:04.972Z,0.80
2018-12-24T10:34:04.977Z,1.10
2018-12-24T10:35:04.952Z,1.00
2018-12-24T10:36:04.981Z,1.00
2018-12-24T10:37:04.950Z,1.00
2018-12-24T10:38:04.918Z,1.10
2018-12-24T10:39:04.947Z,0.90
2018-12-24T10:40:04.897Z,1.10
2018-12-24T10:41:04.882Z,0.80
2018-12-24T10:42:04.897Z,1.10
2018-12-24T10:43:04.862Z,0.90
2018-12-24T10:44:04.864Z,1.00
2018-12-24T10:45:04.843Z,1.00
2018-12-24T10:46:04.834Z,0.80
2018-12-24T10:47:04.826Z,1.00
2018-12-24T10:48:04.913Z,1.00
2018-12-24T10:49:04.805Z,1.00
2018-12-24T10:50:04.815Z,1.10
2018-12-24T10:51:04.788Z,0.80
2018-12-24T10:52:04.797Z,0.90
2018-12-24T10:53:04.832Z,1.10
2018-12-24T10:54:04.823Z,1.00
2018-12-24T10:55:04.757Z,0.90
2018-12-24T10:56:04.751Z,0.90
2018-12-24T10:57:04.766Z,1.10
2018-12-24T10:58:04.724Z,1.10
2018-12-24T10:59:04.696Z,0.90
2018-12-24T11:00:04.688Z,1.20
2018-12-24T11:01:04.674Z,1.10
2018-12-24T11:02:04.671Z,0.90
2018-12-24T11:03:04.685Z,1.10
2018-12-24T11:04:04.653Z,1.20
2018-12-24T11:05:04.651Z,1.00
2018-12-24T11:06:04.626Z,0.90
2018-12-24T11:07:04.665Z,0.90
2018-12-24T11:08:04.656Z,0.80
2018-12-24T11:09:04.601Z,1.00
2018-12-24T11:10:04.607Z,1.00
2018-12-24T11:11:04.586Z,1.00
2018-12-24T11:12:04.557Z,1.10
2018-12-24T11:13:04.572Z,1.10
2018-12-24T11:14:04.540Z,0.80
2018-12-24T11:15:04.528Z,1.00
2018-12-24T11:16:04.532Z,1.00
2018-12-24T11:17:04.504Z,1.10
2018-12-24T11:18:04.535Z,1.10
2018-12-24T11:19:04.490Z,1.00
2018-12-24T11:20:04.487Z,0.90
2018-12-24T11:21:04.466Z,1.20
2018-12-24T11:22:04.465Z,1.00
2018-12-24T11:23:04.462Z,1.20
2018-12-24T11:24:04.438Z,1.10
2018-12-24T11:25:04.426Z,1.00
2018-12-24T11:26:04.449Z,1.10
2018-12-24T11:27:04.413Z,1.10
2018-12-24T11:28:04.426Z,0.90
2018-12-24T11:29:04.391Z,1.30
2018-12-24T11:30:04.380Z,0.90
2018-12-24T11:31:04.370Z,1.00
2018-12-24T11:32:04.356Z,1.30
2018-12-24T11:33:04.341Z,1.20
2018-12-24T11:34:04.365Z,0.90
2018-12-24T11:35:04.330Z,0.80
2018-12-24T11:36:04.310Z,1.00
2018-12-24T11:37:04.307Z,0.80
2018-12-24T11:38:04.298Z,1.00
2018-12-24T11:39:04.299Z,0.90
2018-12-24T11:40:04.273Z,1.10
2018-12-24T11:41:04.268Z,0.80
2018-12-24T11:42:04.254Z,1.00
2018-12-24T11:43:04.238Z,1.10
2018-12-24T11:44:04.249Z,1.10
2018-12-24T11:45:04.225Z,1.10
2018-12-24T11:46:04.210Z,0.90
2018-12-24T11:47:04.198Z,1.40
2018-12-24T11:48:04.188Z,0.90
2018-12-24T11:49:04.194Z,0.90
2018-12-24T11:50:04.178Z,1.10
2018-12-24T11:51:04.168Z,1.20
2018-12-24T11:52:04.171Z,1.00
2018-12-24T11:53:04.142Z,0.90
2018-12-24T11:54:04.144Z,1.40
2018-12-24T11:55:04.121Z,1.00
2018-12-24T11:56:04.104Z,0.80
2018-12-24T11:57:04.172Z,1.10
2018-12-24T11:58:04.085Z,0.80
2018-12-24T11:59:04.082Z,1.10
2018-12-24T12:00:04.065Z,1.00
2018-12-24T12:01:04.056Z,1.20
2018-12-24T12:02:09.999Z,0.90
2018-12-24T12:03:05.034Z,0.90
2018-12-24T12:04:04.033Z,1.10
2018-12-24T12:05:04.012Z,0.90
2018-12-24T12:06:04.009Z,1.10
2018-12-24T12:07:04.010Z,1.00
2018-12-24T12:08:03.978Z,1.20
2018-12-24T12:09:03.989Z,1.00
2018-12-24T12:10:03.964Z,1.20
2018-12-24T12:11:03.952Z,1.00
2018-12-24T12:12:03.945Z,1.10
2018-12-24T12:13:03.947Z,0.90
2018-12-24T12:14:03.947Z,1.10
2018-12-24T12:15:03.909Z,1.10
2018-12-24T12:16:03.899Z,1.10
2018-12-24T12:17:03.889Z,1.00
2018-12-24T12:18:03.874Z,1.10
2018-12-24T12:19:03.877Z,1.10
2018-12-24T12:20:03.877Z,0.80
2018-12-24T12:21:03.841Z,1.00
2018-12-24T12:22:03.843Z,1.00
2018-12-24T12:23:03.826Z,1.20
2018-12-24T12:24:03.813Z,1.00
2018-12-24T12:25:03.819Z,1.10
2018-12-24T12:26:03.818Z,1.10
2018-12-24T12:27:03.784Z,1.00
2018-12-24T12:28:03.776Z,0.90
2018-12-24T12:29:03.765Z,1.30
2018-12-24T12:30:03.765Z,0.90
2018-12-24T12:31:03.737Z,1.20
2018-12-24T12:32:03.731Z,1.30
2018-12-24T12:33:03.733Z,1.10
2018-12-24T12:34:03.718Z,1.50
2018-12-24T12:35:03.718Z,1.00
2018-12-24T12:36:03.699Z,1.10
2018-12-24T12:37:03.676Z,0.90
2018-12-24T12:38:03.680Z,1.10
2018-12-24T12:39:03.705Z,1.20
2018-12-24T12:40:03.775Z,1.20
2018-12-24T12:41:03.649Z,1.10
2018-12-24T12:42:03.640Z,1.00
2018-12-24T12:43:03.661Z,1.10
2018-12-24T12:44:03.612Z,0.90
2018-12-24T12:45:03.613Z,1.10
2018-12-24T12:46:03.588Z,1.20
2018-12-24T12:47:03.569Z,1.20
2018-12-24T12:48:03.562Z,0.90
2018-12-24T12:49:03.565Z,1.10
2018-12-24T12:50:03.573Z,1.10
2018-12-24T12:51:03.534Z,1.20
2018-12-24T12:52:03.535Z,1.30
2018-12-24T12:53:03.509Z,1.10
2018-12-24T12:54:03.502Z,1.20
2018-12-24T12:55:03.506Z,1.20
2018-12-24T12:56:03.965Z,0.90
2018-12-24T12:57:03.470Z,1.10
2018-12-24T12:58:03.462Z,1.30
2018-12-24T12:59:03.449Z,0.90
2018-12-24T13:00:03.483Z,0.90
2018-12-24T13:01:03.421Z,1.10
2018-12-24T13:02:03.422Z,1.20
2018-12-24T13:03:03.406Z,1.20
2018-12-24T13:04:03.423Z,1.00
2018-12-24T13:05:03.394Z,1.40
2018-12-24T13:06:03.391Z,1.10
2018-12-24T13:07:03.362Z,0.80
2018-12-24T13:08:03.351Z,1.20
2018-12-24T13:09:03.346Z,1.00
2018-12-24T13:10:04.593Z,1.40
2018-12-24T13:11:03.347Z,1.10
2018-12-24T13:12:03.310Z,1.10
2018-12-24T13:13:03.310Z,0.90
2018-12-24T13:14:03.291Z,1.30
2018-12-24T13:15:03.283Z,1.20
2018-12-24T13:16:03.288Z,1.10
2018-12-24T13:17:03.266Z,1.20
2018-12-24T13:18:03.247Z,0.90